Time;durP1;ratioP1;P1;durP2;ratioP2;P2;SDS_P1;SDS_P2;PMS_P1;PMS_P2;Temp;Humidity;BMP_temperature;BMP_pressure;BME280_temperature;BME280_humidity;BME280_pressure;Samples;Min_cycle;Max_cycle;Signal;HPM_P1;HPM_P2
2022/12/14 00:01:25;;;;;;;36.05;17.92;;;;;;;3.54;96.88;99727.00;5109540;28;20065;-66
2022/12/14 00:03:52;;;;;;;35.15;16.48;;;;;;;3.47;97.24;99726.06;5083398;28;20067;-66
2022/12/14 00:06:25;;;;;;;37.65;17.67;;;;;;;3.36;97.29;99694.59;5108028;28;20321;-66
2022/12/14 00:08:53;;;;;;;39.03;17.85;;;;;;;3.36;97.30;99694.59;5107051;28;20442;-66
2022/12/14 00:11:18;;;;;;;38.20;17.45;;;;;;;3.59;97.28;99721.16;5102751;28;20112;-66
2022/12/14 00:13:44;;;;;;;38.50;18.85;;;;;;;3.57;95.95;99716.00;5116754;28;20127;-66
2022/12/14 00:16:14;;;;;;;38.85;17.95;;;;;;;3.50;97.04;99723.88;5106253;28;20097;-66
2022/12/14 00:18:40;;;;;;;34.67;15.07;;;;;;;3.35;96.72;99693.78;5108262;28;20027;-66
2022/12/14 00:21:08;;;;;;;30.77;15.40;;;;;;;3.28;97.14;99690.19;5112338;28;20051;-66
2022/12/14 00:23:34;;;;;;;30.38;15.75;;;;;;;3.33;96.77;99695.78;5103003;28;20028;-65
2022/12/14 00:26:13;;;;;;;33.85;16.27;;;;;;;3.40;97.63;99704.69;5113946;28;20039;-66
2022/12/14 00:28:39;;;;;;;33.55;17.10;;;;;;;3.59;97.19;99718.50;5109707;28;20031;-66
2022/12/14 00:31:05;;;;;;;34.35;15.02;;;;;;;3.49;97.25;99708.94;5105781;28;20040;-65
2022/12/14 00:33:31;;;;;;;33.08;17.45;;;;;;;3.51;97.19;99701.63;5114684;28;20035;-66
2022/12/14 00:35:57;;;;;;;40.67;18.00;;;;;;;3.53;97.03;99701.44;5103765;28;20550;-67
2022/12/14 00:38:22;;;;;;;34.20;15.93;;;;;;;3.38;97.57;99668.66;5111517;28;20040;-67
2022/12/14 00:40:48;;;;;;;33.45;16.73;;;;;;;3.08;97.51;99615.44;5111077;28;20023;-67
2022/12/14 00:43:14;;;;;;;34.38;17.77;;;;;;;3.34;97.19;99664.69;5104544;28;20032;-66
2022/12/14 00:45:43;;;;;;;38.38;17.52;;;;;;;3.49;98.13;99684.19;5114771;28;20040;-67
2022/12/14 00:48:09;;;;;;;40.42;17.88;;;;;;;3.47;98.53;99679.03;5105499;28;20054;-65
2022/12/14 00:50:34;;;;;;;33.03;15.98;;;;;;;3.43;98.71;99669.75;5110115;28;20036;-66
2022/12/14 00:53:00;;;;;;;36.30;17.27;;;;;;;3.43;98.55;99674.25;5111357;28;20032;-66
2022/12/14 00:55:25;;;;;;;35.92;17.83;;;;;;;3.49;97.81;99660.25;5102933;28;20040;-65
2022/12/14 00:57:51;;;;;;;32.55;15.50;;;;;;;3.46;97.78;99642.81;5097903;28;20032;-67
2022/12/14 01:00:16;;;;;;;28.15;14.60;;;;;;;3.58;97.40;99669.81;5105353;28;20043;-65
2022/12/14 01:02:42;;;;;;;26.90;15.05;;;;;;;3.61;97.94;99672.09;5108985;28;20249;-65
2022/12/14 01:05:07;;;;;;;28.88;15.05;;;;;;;3.63;97.93;99663.94;5113001;28;20085;-69
2022/12/14 01:07:33;;;;;;;30.67;14.38;;;;;;;3.55;97.57;99648.06;5101245;28;20067;-66
2022/12/14 01:09:58;;;;;;;29.60;13.98;;;;;;;3.62;97.41;99663.09;5097180;28;20093;-66
2022/12/14 01:12:24;;;;;;;30.70;14.60;;;;;;;3.61;96.92;99656.16;5088671;28;20389;-65
2022/12/14 01:14:50;;;;;;;24.27;12.63;;;;;;;3.52;98.14;99652.72;5107456;28;20031;-66
2022/12/14 01:17:15;;;;;;;27.27;12.88;;;;;;;3.58;98.06;99640.56;5113950;28;20482;-66
2022/12/14 01:19:41;;;;;;;21.55;12.57;;;;;;;3.47;97.17;99617.88;5100735;28;20481;-67
2022/12/14 01:22:06;;;;;;;23.10;12.50;;;;;;;3.63;97.66;99638.16;5113089;28;20024;-68
2022/12/14 01:24:32;;;;;;;27.58;12.40;;;;;;;3.60;98.25;99635.84;5106312;28;20512;-67
2022/12/14 01:26:57;;;;;;;28.15;13.43;;;;;;;3.60;98.69;99637.69;5104902;28;20028;-66
2022/12/14 01:29:23;;;;;;;26.98;13.70;;;;;;;3.71;98.05;99647.91;5113413;28;20043;-66
2022/12/14 01:31:48;;;;;;;25.77;12.63;;;;;;;3.74;97.98;99636.84;5101848;28;20035;-66
2022/12/14 01:34:14;;;;;;;27.33;12.23;;;;;;;3.64;97.93;99636.31;5110542;28;20059;-66
2022/12/14 01:36:40;;;;;;;23.92;11.68;;;;;;;3.71;98.17;99643.41;5108417;28;20023;-65
2022/12/14 01:39:14;;;;;;;20.25;11.95;;;;;;;3.88;97.64;99645.88;5104487;28;20032;-67
2022/12/14 01:41:48;;;;;;;21.15;11.45;;;;;;;3.76;98.07;99643.66;5115012;28;20024;-70
2022/12/14 01:44:17;;;;;;;18.88;10.57;;;;;;;3.81;97.16;99634.28;5103248;28;20035;-68
2022/12/14 01:46:57;;;;;;;22.08;10.65;;;;;;;3.82;97.72;99625.31;5107391;27;20064;-66
2022/12/14 01:49:35;;;;;;;20.92;10.55;;;;;;;3.67;97.88;99607.50;5112680;28;20024;-67
2022/12/14 01:52:15;;;;;;;16.33;7.50;;;;;;;3.71;97.55;99630.09;5102363;27;20432;-66
2022/12/14 01:54:49;;;;;;;20.13;9.88;;;;;;;3.75;97.61;99607.44;5106456;28;20156;-66
2022/12/14 01:57:21;;;;;;;16.25;9.25;;;;;;;3.89;97.99;99618.25;5112808;28;20031;-66
2022/12/14 01:59:47;;;;;;;20.58;9.23;;;;;;;3.83;98.40;99614.47;5100065;28;20032;-66
2022/12/14 02:02:16;;;;;;;15.75;9.13;;;;;;;3.90;97.70;99611.91;5110340;28;20109;-66
2022/12/14 02:04:49;;;;;;;17.00;8.15;;;;;;;3.88;97.56;99605.97;5104659;28;20027;-67
2022/12/14 02:07:16;;;;;;;18.80;8.20;;;;;;;3.87;97.83;99602.44;5101036;28;20036;-67
2022/12/14 02:09:43;;;;;;;18.05;7.10;;;;;;;3.80;97.14;99558.97;5114063;28;20032;-66
2022/12/14 02:12:15;;;;;;;12.65;7.10;;;;;;;3.93;98.72;99596.38;5102706;28;20039;-66
2022/12/14 02:14:41;;;;;;;13.65;6.72;;;;;;;4.03;98.73;99587.28;5108121;28;20059;-66
2022/12/14 02:17:08;;;;;;;11.70;6.32;;;;;;;3.69;98.77;99543.50;5109907;28;20039;-67
2022/12/14 02:19:35;;;;;;;13.10;5.82;;;;;;;4.02;98.68;99593.63;5099464;28;20042;-67
2022/12/14 02:22:13;;;;;;;13.00;6.00;;;;;;;4.03;98.22;99579.31;5113287;28;20395;-67
2022/12/14 02:24:44;;;;;;;11.75;5.25;;;;;;;4.14;98.54;99590.31;5107791;28;20058;-67
2022/12/14 02:27:15;;;;;;;12.07;5.28;;;;;;;4.11;98.30;99593.34;5102246;28;20036;-66
2022/12/14 02:29:56;;;;;;;11.75;5.70;;;;;;;3.99;98.38;99598.31;5113118;28;20077;-66
2022/12/14 02:32:29;;;;;;;13.73;5.40;;;;;;;4.05;98.41;99591.44;5103461;28;20455;-66
2022/12/14 02:35:30;;;;;;;12.32;5.72;;;;;;;4.21;97.23;99599.19;5104422;28;20039;-66
2022/12/14 02:38:23;;;;;;;15.63;5.82;;;;;;;4.31;97.07;99590.09;5083944;28;20053;-67
2022/12/14 02:41:19;;;;;;;12.20;5.35;;;;;;;4.20;97.61;99589.53;5106867;28;20453;-67
2022/12/14 02:43:44;;;;;;;;;;;;;;;4.13;98.07;99590.47;5114729;28;20039;-66
2022/12/14 02:46:37;;;;;;;10.48;4.57;;;;;;;4.28;98.01;99593.13;5101986;28;19916;-66
2022/12/14 02:49:40;;;;;;;12.20;4.22;;;;;;;4.14;97.76;99587.66;5104591;28;20032;-66
2022/12/14 02:52:05;;;;;;;8.85;3.88;;;;;;;4.16;98.46;99585.59;5101521;28;20131;-67
2022/12/14 02:54:51;;;;;;;11.48;4.10;;;;;;;4.33;97.18;99585.38;5108964;28;20502;-66
2022/12/14 02:57:21;;;;;;;12.07;4.07;;;;;;;4.28;97.15;99572.66;5062004;28;20044;-67
2022/12/14 02:59:51;;;;;;;10.02;4.10;;;;;;;4.25;97.78;99578.34;5111983;28;20036;-66
2022/12/14 03:02:17;;;;;;;14.75;4.28;;;;;;;4.22;98.01;99578.72;5103867;28;20043;-66
2022/12/14 03:04:46;;;;;;;10.57;4.25;;;;;;;4.13;97.62;99543.38;5107819;28;20047;-66
2022/12/14 03:07:35;;;;;;;10.13;4.38;;;;;;;4.26;98.04;99573.84;5111435;28;20032;-66
2022/12/14 03:10:10;;;;;;;15.50;5.05;;;;;;;4.25;98.35;99573.00;5086154;28;20043;-66
2022/12/14 03:12:39;;;;;;;9.32;4.18;;;;;;;4.28;97.98;99566.50;5108782;28;20085;-67
2022/12/14 03:15:08;;;;;;;14.18;4.25;;;;;;;4.18;97.73;99548.16;5111206;28;20070;-67
2022/12/14 03:17:34;;;;;;;14.15;4.15;;;;;;;4.26;98.52;99571.19;5100905;28;20056;-66
2022/12/14 03:20:17;;;;;;;9.18;4.07;;;;;;;4.41;97.73;99563.97;5113650;28;20035;-67
2022/12/14 03:23:06;;;;;;;8.82;3.53;;;;;;;4.37;98.13;99560.00;5108502;28;20037;-67
2022/12/14 03:25:41;;;;;;;10.05;3.78;;;;;;;4.35;97.26;99562.88;5102102;28;20035;-66
2022/12/14 03:28:19;;;;;;;9.18;3.55;;;;;;;4.33;97.41;99553.44;5113387;28;20028;-67
2022/12/14 03:31:02;;;;;;;16.55;4.47;;;;;;;4.46;97.33;99546.38;5109022;28;20054;-66
2022/12/14 03:33:36;;;;;;;11.93;4.40;;;;;;;4.34;97.55;99544.41;5102077;28;20028;-67
2022/12/14 03:36:31;;;;;;;12.30;4.55;;;;;;;4.26;98.22;99541.88;5086760;28;20034;-67
2022/12/14 03:39:01;;;;;;;14.80;4.72;;;;;;;4.28;98.37;99543.34;5106098;28;20059;-66
2022/12/14 03:41:48;;;;;;;17.08;4.72;;;;;;;4.33;97.60;99545.44;5113712;28;20031;-67
2022/12/14 03:44:41;;;;;;;15.40;5.22;;;;;;;4.30;97.39;99533.31;5089229;28;20027;-67
2022/12/14 03:48:01;;;;;;;14.68;5.22;;;;;;;4.36;97.42;99537.88;5106659;28;20028;-66
2022/12/14 03:50:48;;;;;;;12.43;5.68;;;;;;;4.29;97.53;99520.22;5046421;28;20416;-66
2022/12/14 03:53:47;;;;;;;16.38;5.55;;;;;;;4.37;97.76;99528.91;5110648;28;20040;-66
2022/12/14 03:56:29;;;;;;;19.92;5.60;;;;;;;4.37;97.13;99515.59;5092541;28;20043;-67
2022/12/14 03:59:03;;;;;;;14.98;5.55;;;;;;;4.35;97.76;99519.44;5106066;28;20028;-67
2022/12/14 04:01:53;;;;;;;15.95;5.80;;;;;;;4.39;97.47;99510.88;5117657;28;20057;-66
2022/12/14 04:04:18;;;;;;;24.00;6.80;;;;;;;4.33;97.47;99505.50;5093873;28;20023;-67
2022/12/14 04:06:59;;;;;;;13.82;5.57;;;;;;;4.33;97.41;99500.16;5110751;28;20165;-67
2022/12/14 04:09:38;;;;;;;15.77;5.38;;;;;;;4.43;97.47;99498.00;5115120;28;20027;-67
2022/12/14 04:21:13;;;;;;;11.50;3.78;;;;;;;4.37;97.52;99485.44;5108103;28;20089;-67
2022/12/14 04:26:36;;;;;;;12.07;3.42;;;;;;;4.38;97.01;99495.94;5107972;28;20077;-66
2022/12/14 04:32:04;;;;;;;16.92;3.22;;;;;;;4.35;97.72;99490.16;5120044;28;20062;-67
2022/12/14 04:34:32;;;;;;;11.40;2.55;;;;;;;4.34;97.83;99486.69;5110720;28;20028;-67
2022/12/14 04:37:02;;;;;;;9.95;3.28;;;;;;;4.38;97.18;99490.59;5111158;28;20027;-67
2022/12/14 04:39:52;;;;;;;7.75;2.67;;;;;;;4.31;98.33;99502.22;5104296;28;20115;-67
2022/12/14 04:42:22;;;;;;;10.90;2.90;;;;;;;4.48;97.22;99503.59;5106591;28;20020;-67
2022/12/14 04:44:58;;;;;;;8.35;2.38;;;;;;;4.19;97.53;99467.28;5109341;28;20038;-67
2022/12/14 04:47:31;;;;;;;7.53;1.98;;;;;;;4.35;97.86;99501.63;5113793;28;20044;-66
2022/12/14 04:50:29;;;;;;;8.60;2.30;;;;;;;4.42;97.88;99502.50;5103248;28;20406;-66
2022/12/14 04:53:21;;;;;;;9.88;2.53;;;;;;;4.55;97.55;99503.66;5108198;28;20032;-67
2022/12/14 04:55:52;;;;;;;12.95;2.35;;;;;;;4.51;97.66;99502.41;5075968;28;20044;-66
2022/12/14 04:58:27;;;;;;;16.45;2.90;;;;;;;4.31;97.95;99473.75;5077508;28;20041;-67
2022/12/14 05:01:10;;;;;;;10.35;2.13;;;;;;;4.40;97.61;99507.22;5060229;28;20032;-66
2022/12/14 05:04:00;;;;;;;10.57;2.60;;;;;;;4.32;97.70;99501.19;5057716;28;20043;-66
2022/12/14 05:06:36;;;;;;;8.18;2.38;;;;;;;4.33;98.21;99503.66;5077216;28;20072;-65
2022/12/14 05:09:37;;;;;;;7.35;2.60;;;;;;;4.26;97.93;99494.78;5077502;28;20035;-66
2022/12/14 05:12:05;;;;;;;10.77;2.58;;;;;;;4.35;97.46;99503.47;5058303;28;20052;-65
2022/12/14 05:14:48;;;;;;;9.20;2.80;;;;;;;4.27;97.52;99493.75;5078456;28;20033;-66
2022/12/14 05:17:14;;;;;;;8.88;2.60;;;;;;;4.35;96.81;99495.47;5078826;28;20454;-67
2022/12/14 05:19:48;;;;;;;7.35;2.67;;;;;;;4.33;97.24;99505.50;5063620;28;20539;-67
2022/12/14 05:22:14;;;;;;;7.23;2.47;;;;;;;4.32;96.69;99496.69;5078350;28;20044;-70
2022/12/14 05:24:40;;;;;;;7.82;2.53;;;;;;;4.17;95.96;99470.13;5061300;28;20458;-70
2022/12/14 05:27:08;;;;;;;7.88;2.22;;;;;;;4.28;96.04;99478.63;5081937;28;20041;-70
2022/12/14 05:29:33;;;;;;;7.68;2.25;;;;;;;4.28;96.25;99479.44;5101909;28;20063;-69
2022/12/14 05:32:00;;;;;;;9.98;2.70;;;;;;;4.22;95.58;99482.88;5103809;28;20035;-67
2022/12/14 05:34:26;;;;;;;8.93;2.58;;;;;;;4.05;95.75;99457.53;5113256;28;20055;-65
2022/12/14 05:36:51;;;;;;;16.30;3.60;;;;;;;4.19;96.03;99477.91;5110492;28;20062;-67
2022/12/14 05:39:16;;;;;;;10.50;2.60;;;;;;;4.12;96.08;99475.19;5088612;28;20039;-67
2022/12/14 05:41:42;;;;;;;15.05;3.20;;;;;;;3.89;95.82;99440.78;5116553;28;20031;-68
2022/12/14 05:44:08;;;;;;;8.65;2.60;;;;;;;3.92;96.10;99447.56;5104136;28;20027;-67
2022/12/14 05:46:33;;;;;;;7.50;2.60;;;;;;;4.06;95.76;99475.94;5112581;28;20091;-68
2022/12/14 05:48:59;;;;;;;9.95;2.90;;;;;;;3.92;95.30;99450.22;5112315;28;20477;-68
2022/12/14 05:51:24;;;;;;;10.93;2.58;;;;;;;3.86;96.07;99441.16;5102966;28;20032;-68
2022/12/14 05:53:50;;;;;;;12.65;2.53;;;;;;;4.02;95.42;99466.69;5098157;28;20099;-67
2022/12/14 05:56:15;;;;;;;8.02;2.45;;;;;;;4.03;95.64;99457.69;5104273;28;20054;-66
2022/12/14 05:58:41;;;;;;;9.38;2.90;;;;;;;3.92;95.92;99443.06;5110835;28;20048;-67
2022/12/14 06:01:10;;;;;;;14.45;2.85;;;;;;;3.94;96.13;99458.81;5112033;28;20439;-66
2022/12/14 06:03:36;;;;;;;11.13;2.78;;;;;;;3.93;95.83;99465.16;5101660;28;20415;-67
2022/12/14 06:06:07;;;;;;;13.80;3.72;;;;;;;4.01;95.86;99451.75;5115591;28;20102;-67
2022/12/14 06:08:38;;;;;;;8.30;3.03;;;;;;;3.96;96.52;99462.13;5107417;28;20046;-66
2022/12/14 06:11:13;;;;;;;10.15;2.90;;;;;;;3.97;96.58;99458.44;5104728;28;20295;-66
2022/12/14 06:13:40;;;;;;;9.63;3.00;;;;;;;4.05;95.91;99450.34;5114840;28;20080;-68
2022/12/14 06:16:16;;;;;;;11.52;2.78;;;;;;;4.09;95.67;99456.13;5103093;28;20080;-66
2022/12/14 06:18:47;;;;;;;9.93;2.53;;;;;;;4.05;95.05;99455.69;5109477;28;20050;-67
2022/12/14 06:21:14;;;;;;;10.30;2.70;;;;;;;3.85;95.94;99436.84;5112465;28;20084;-66
2022/12/14 06:23:39;;;;;;;9.13;2.22;;;;;;;3.88;95.65;99448.97;5100108;28;20083;-67
2022/12/14 06:26:05;;;;;;;12.43;2.90;;;;;;;3.91;95.88;99461.88;5100818;28;20058;-69
2022/12/14 06:28:31;;;;;;;9.60;2.20;;;;;;;3.95;96.15;99468.47;5109424;28;20219;-66
2022/12/14 06:30:57;;;;;;;12.07;2.85;;;;;;;3.95;95.21;99461.31;5091413;28;20038;-66
2022/12/14 06:33:22;;;;;;;8.52;2.05;;;;;;;3.87;95.70;99445.44;5084880;28;20043;-66
2022/12/14 06:35:47;;;;;;;11.20;2.60;;;;;;;3.76;95.53;99441.44;5113374;28;20444;-67
2022/12/14 06:38:13;;;;;;;9.73;2.50;;;;;;;3.40;95.70;99374.97;5102415;28;20431;-66
2022/12/14 06:40:39;;;;;;;10.32;2.30;;;;;;;3.92;95.12;99455.53;5109385;28;20516;-67
2022/12/14 06:43:05;;;;;;;8.38;2.10;;;;;;;4.05;95.47;99469.00;5110232;28;20030;-67
2022/12/14 06:45:31;;;;;;;4.75;1.90;;;;;;;3.79;96.40;99474.84;5101784;28;20525;-67
2022/12/14 06:47:59;;;;;;;7.68;2.28;;;;;;;3.40;96.78;99488.50;5113352;28;20038;-67
2022/12/14 06:50:26;;;;;;;3.72;2.00;;;;;;;3.20;97.72;99488.22;5103612;28;20085;-67
2022/12/14 06:52:54;;;;;;;6.75;2.33;;;;;;;3.04;97.92;99490.03;5107172;28;20043;-67
2022/12/14 06:55:19;;;;;;;5.95;1.98;;;;;;;2.95;98.65;99490.34;5112037;28;20027;-67
2022/12/14 06:57:45;;;;;;;5.45;2.28;;;;;;;2.85;98.05;99503.03;5099283;28;20032;-67
2022/12/14 07:00:11;;;;;;;7.70;2.20;;;;;;;2.64;97.46;99485.97;5110974;28;20035;-67
2022/12/14 07:02:37;;;;;;;9.50;2.63;;;;;;;2.77;96.14;99480.03;5104220;28;20502;-67
2022/12/14 07:05:03;;;;;;;13.02;2.40;;;;;;;2.99;96.01;99505.72;5103506;28;20039;-67
2022/12/14 07:07:35;;;;;;;6.35;2.05;;;;;;;3.06;95.19;99516.47;5111777;28;20031;-67
2022/12/14 07:10:01;;;;;;;8.20;2.22;;;;;;;2.59;97.02;99509.59;5099663;28;20447;-66
2022/12/14 07:12:27;;;;;;;5.07;1.63;;;;;;;2.68;96.49;99515.66;5121714;28;20095;-83
2022/12/14 07:14:54;;;;;;;5.97;2.03;;;;;;;2.63;95.77;99521.50;5122980;28;20065;-80
2022/12/14 07:17:20;;;;;;;7.07;1.98;;;;;;;2.46;95.93;99512.84;5108012;28;20433;-67
2022/12/14 07:19:46;;;;;;;4.05;1.52;;;;;;;2.48;94.93;99516.16;5116678;28;20035;-67
2022/12/14 07:22:12;;;;;;;7.20;2.22;;;;;;;2.56;94.44;99536.50;5102355;28;20065;-66
2022/12/14 07:24:41;;;;;;;6.40;2.10;;;;;;;2.61;94.14;99535.97;5111840;28;20031;-66
2022/12/14 07:27:06;;;;;;;5.68;2.22;;;;;;;2.41;94.32;99538.28;5114920;28;20031;-66
2022/12/14 07:29:32;;;;;;;5.97;1.95;;;;;;;2.45;93.13;99547.53;5104396;28;20028;-66
2022/12/14 07:31:58;;;;;;;7.28;2.10;;;;;;;2.07;93.52;99507.66;5100553;28;20038;-65
2022/12/14 07:34:24;;;;;;;5.28;1.67;;;;;;;1.99;93.53;99527.13;5109169;28;20152;-66
2022/12/14 07:36:52;;;;;;;4.78;1.48;;;;;;;1.87;93.03;99525.88;5112333;27;20368;-66
2022/12/14 07:39:18;;;;;;;5.07;1.83;;;;;;;1.88;92.30;99538.94;5116699;28;20039;-66
2022/12/14 07:41:46;;;;;;;6.78;2.20;;;;;;;1.69;91.06;99509.38;5122827;27;20040;-66
2022/12/14 07:44:12;;;;;;;6.13;1.80;;;;;;;2.08;90.55;99541.97;5119870;27;20155;-66
2022/12/14 07:46:39;;;;;;;8.00;1.88;;;;;;;2.13;90.52;99545.94;5111637;28;20579;-66
2022/12/14 07:49:04;;;;;;;6.07;2.13;;;;;;;1.87;89.53;99525.88;5111070;27;20035;-66
2022/12/14 07:51:33;;;;;;;5.10;1.95;;;;;;;2.04;88.85;99559.25;5119999;28;20076;-66
2022/12/14 07:53:59;;;;;;;3.42;1.63;;;;;;;1.86;87.33;99548.91;5107240;27;20054;-67
2022/12/14 07:56:34;;;;;;;3.80;1.70;;;;;;;1.99;86.09;99558.13;5115695;28;20074;-66
2022/12/14 07:59:02;;;;;;;5.78;1.50;;;;;;;2.02;86.63;99563.06;5113967;28;20394;-66
2022/12/14 08:01:29;;;;;;;4.45;2.08;;;;;;;2.05;86.66;99560.06;5107700;27;20035;-66
2022/12/14 08:04:04;;;;;;;2.15;1.15;;;;;;;1.96;86.00;99561.13;5120184;28;20031;-66
2022/12/14 08:06:31;;;;;;;5.80;1.48;;;;;;;1.79;85.20;99513.47;5103666;27;20057;-66
2022/12/14 08:08:57;;;;;;;3.53;1.33;;;;;;;1.95;85.10;99568.25;5111103;28;20061;-66
2022/12/14 08:11:24;;;;;;;5.63;1.33;;;;;;;1.95;85.14;99570.91;5117980;28;20048;-66
2022/12/14 08:14:03;;;;;;;3.53;1.40;;;;;;;2.05;85.38;99581.28;5106461;27;20533;-65
2022/12/14 08:16:30;;;;;;;5.65;1.65;;;;;;;2.01;85.30;99580.81;5116135;27;20132;-66
2022/12/14 08:18:57;;;;;;;3.30;1.45;;;;;;;1.94;85.41;99584.34;5114456;28;20028;-66
2022/12/14 08:21:25;;;;;;;4.13;1.50;;;;;;;1.93;86.00;99583.53;5108466;27;20032;-65
2022/12/14 08:23:52;;;;;;;5.05;1.40;;;;;;;1.84;86.80;99577.41;5118615;28;20043;-66
2022/12/14 08:26:19;;;;;;;3.47;1.45;;;;;;;2.16;86.83;99599.50;5108016;28;20036;-66
2022/12/14 08:28:44;;;;;;;4.05;1.50;;;;;;;1.99;86.04;99568.75;5112864;28;20036;-66
2022/12/14 08:31:12;;;;;;;3.10;1.50;;;;;;;2.21;86.15;99604.28;5112588;28;20080;-66
2022/12/14 08:33:39;;;;;;;6.38;1.50;;;;;;;2.11;87.06;99604.50;5102755;28;20031;-66
2022/12/14 08:36:05;;;;;;;5.32;1.58;;;;;;;2.07;87.93;99604.00;5116156;28;20024;-66
2022/12/14 08:38:30;;;;;;;5.07;1.23;;;;;;;1.95;88.89;99608.03;5106350;28;20061;-66
2022/12/14 08:41:00;;;;;;;4.13;1.52;;;;;;;1.96;89.10;99595.63;5108742;28;20063;-66
2022/12/14 08:43:26;;;;;;;4.53;1.55;;;;;;;1.97;89.75;99598.09;5113813;28;20039;-66
2022/12/14 08:45:53;;;;;;;4.75;1.58;;;;;;;2.00;89.53;99608.38;5101791;28;20124;-66
2022/12/14 08:48:19;;;;;;;3.42;1.00;;;;;;;2.26;87.32;99615.19;5114103;28;20031;-66
2022/12/14 08:50:44;;;;;;;4.15;1.60;;;;;;;2.08;87.73;99626.06;5109876;28;20032;-66
2022/12/14 08:53:10;;;;;;;3.72;1.23;;;;;;;1.94;88.50;99621.50;5106498;28;20444;-66
2022/12/14 08:55:36;;;;;;;3.92;1.15;;;;;;;1.71;87.05;99589.59;5115064;28;20046;-66
2022/12/14 08:58:04;;;;;;;5.45;1.23;;;;;;;1.94;87.62;99630.28;5086213;28;20394;-66
2022/12/14 09:00:29;;;;;;;2.53;1.30;;;;;;;1.60;87.61;99588.16;5112418;28;20207;-66
2022/12/14 09:02:55;;;;;;;7.25;1.85;;;;;;;1.75;86.96;99631.50;5091438;28;20051;-66
2022/12/14 09:05:20;;;;;;;6.63;1.58;;;;;;;1.83;86.94;99641.25;5086865;28;20490;-65
2022/12/14 09:07:46;;;;;;;5.53;1.50;;;;;;;1.72;86.79;99645.09;5116186;28;20035;-66
2022/12/14 09:10:11;;;;;;;6.90;2.08;;;;;;;1.68;88.09;99632.34;5104294;28;20047;-65
2022/12/14 09:12:38;;;;;;;3.40;1.60;;;;;;;1.51;89.05;99644.81;5111531;28;20040;-78
2022/12/14 09:15:04;;;;;;;4.53;1.73;;;;;;;1.37;89.93;99639.22;5107461;28;20039;-87
2022/12/14 09:17:29;;;;;;;4.57;1.75;;;;;;;1.34;89.23;99652.81;5116592;28;20399;-73
2022/12/14 09:19:56;;;;;;;6.15;1.63;;;;;;;1.25;88.60;99614.06;5116658;28;20036;-66
2022/12/14 09:22:23;;;;;;;4.13;1.48;;;;;;;1.26;89.25;99651.97;5104797;28;20505;-66
2022/12/14 09:24:49;;;;;;;3.80;1.52;;;;;;;1.21;89.08;99654.31;5105084;28;20036;-66
2022/12/14 09:27:15;;;;;;;4.95;1.42;;;;;;;1.28;88.57;99658.78;5111964;28;20135;-65
2022/12/14 09:29:41;;;;;;;4.88;1.75;;;;;;;1.28;88.20;99666.72;5101878;28;20087;-66
2022/12/14 09:32:06;;;;;;;2.92;1.50;;;;;;;1.37;87.98;99656.94;5113664;28;20056;-66
2022/12/14 09:34:32;;;;;;;3.97;1.50;;;;;;;1.14;89.16;99640.91;5105047;28;20043;-66
2022/12/14 09:37:03;;;;;;;4.40;1.58;;;;;;;1.20;89.86;99666.75;5089460;28;20035;-66
2022/12/14 09:39:29;;;;;;;3.83;1.40;;;;;;;1.07;89.57;99658.47;5112978;28;20027;-66
2022/12/14 09:42:32;;;;;;;5.60;1.40;;;;;;;1.04;89.42;99664.09;5083626;28;20115;-65
2022/12/14 09:45:17;;;;;;;4.47;1.67;;;;;;;1.13;90.24;99649.88;5107212;28;20031;-66
2022/12/14 09:48:01;;;;;;;;;;;;;;;0.93;89.31;99668.72;5114156;28;20031;-67
2022/12/14 09:50:28;;;;;;;3.17;1.20;;;;;;;1.01;88.54;99667.91;5105167;28;20041;-66
2022/12/14 09:52:56;;;;;;;3.88;1.50;;;;;;;0.91;89.16;99664.59;5107618;28;20031;-66
2022/12/14 09:55:28;;;;;;;3.40;1.30;;;;;;;0.98;89.07;99673.53;5113457;28;20027;-66
2022/12/14 09:58:08;;;;;;;4.20;1.00;;;;;;;1.21;87.55;99686.13;5102018;28;20435;-66
2022/12/14 10:00:43;;;;;;;5.85;1.73;;;;;;;1.19;86.66;99675.66;5110888;28;20039;-66
2022/12/14 10:03:11;;;;;;;1.88;1.00;;;;;;;1.18;86.12;99695.22;5110960;28;20044;-68
2022/12/14 10:05:46;;;;;;;2.60;1.40;;;;;;;1.05;87.33;99686.94;5100202;28;20495;-66
2022/12/14 10:08:26;;;;;;;1.85;0.93;;;;;;;1.25;85.23;99692.72;5088276;28;20035;-66
2022/12/14 10:11:10;;;;;;;4.32;1.63;;;;;;;1.08;85.29;99691.91;5107952;27;20055;-66
2022/12/14 10:13:43;;;;;;;5.05;1.92;;;;;;;1.31;84.52;99687.59;5112936;28;20031;-66
2022/12/14 10:16:34;;;;;;;4.68;1.42;;;;;;;1.15;84.36;99682.28;5086527;28;20023;-66
2022/12/14 10:19:17;;;;;;;3.95;1.40;;;;;;;1.21;83.72;99692.25;5106862;28;20036;-65
2022/12/14 10:21:51;;;;;;;4.43;1.10;;;;;;;1.06;83.10;99689.44;5114719;28;20028;-67
2022/12/14 10:24:24;;;;;;;4.18;1.23;;;;;;;1.02;82.86;99681.97;5103314;28;20033;-66
2022/12/14 10:26:53;;;;;;;5.90;1.23;;;;;;;1.28;82.15;99706.47;5106515;28;20035;-66
2022/12/14 10:29:37;;;;;;;3.40;1.13;;;;;;;1.27;82.81;99717.25;5110542;28;20030;-65
2022/12/14 10:32:14;;;;;;;3.53;1.10;;;;;;;1.24;82.78;99722.88;5099569;28;20024;-66
2022/12/14 10:34:42;;;;;;;4.53;1.20;;;;;;;0.94;81.34;99685.44;5109111;28;20043;-66
2022/12/14 10:37:21;;;;;;;2.97;1.02;;;;;;;1.24;82.21;99725.53;5097417;28;20044;-65
2022/12/14 10:40:00;;;;;;;5.35;1.08;;;;;;;1.20;82.47;99727.69;5112911;28;20436;-66
2022/12/14 10:42:33;;;;;;;5.75;1.50;;;;;;;0.91;82.72;99723.66;5101707;28;20023;-66
2022/12/14 10:45:07;;;;;;;3.45;0.95;;;;;;;1.00;82.17;99727.16;5104198;28;20111;-66
2022/12/14 10:47:42;;;;;;;3.65;1.27;;;;;;;1.02;81.84;99721.69;5113671;28;20590;-66
2022/12/14 10:50:27;;;;;;;2.30;0.98;;;;;;;1.20;80.27;99727.69;5093540;28;20031;-65
2022/12/14 10:52:55;;;;;;;3.08;1.15;;;;;;;1.09;79.85;99736.78;5119802;28;20032;-66
2022/12/14 10:55:28;;;;;;;2.25;0.65;;;;;;;1.14;79.30;99741.59;5127493;28;20032;-66
2022/12/14 10:57:54;;;;;;;2.55;1.00;;;;;;;0.93;79.79;99737.59;5117288;28;20022;-66
2022/12/14 11:00:20;;;;;;;3.10;0.98;;;;;;;0.71;81.29;99724.97;5127252;28;20039;-68
2022/12/14 11:02:49;;;;;;;3.80;0.93;;;;;;;0.87;80.48;99740.88;5113802;28;20044;-69
2022/12/14 11:05:40;;;;;;;3.95;0.98;;;;;;;0.82;79.72;99745.81;5112153;28;20031;-66
2022/12/14 11:08:07;;;;;;;1.88;0.90;;;;;;;0.44;78.17;99723.41;5092829;28;20019;-66
2022/12/14 11:10:35;;;;;;;3.50;1.00;;;;;;;0.59;78.10;99750.06;5117841;28;20061;-66
2022/12/14 11:13:16;;;;;;;1.23;0.70;;;;;;;0.58;77.76;99724.59;5115818;28;20141;-69
2022/12/14 11:15:51;;;;;;;1.17;0.57;;;;;;;1.01;75.72;99743.88;5109135;28;20147;-66
2022/12/14 11:18:16;;;;;;;1.27;0.70;;;;;;;0.88;75.79;99739.88;5120482;28;20023;-66
2022/12/14 11:20:56;;;;;;;4.15;0.60;;;;;;;0.83;75.46;99752.81;5113199;28;20038;-66
2022/12/14 11:23:29;;;;;;;1.70;0.55;;;;;;;0.78;73.44;99752.44;5112339;28;20054;-66
2022/12/14 11:26:01;;;;;;;3.00;0.80;;;;;;;0.86;72.98;99743.69;5122082;28;20050;-67
2022/12/14 11:28:38;;;;;;;2.15;0.60;;;;;;;1.17;72.02;99749.22;5114054;28;20026;-78
2022/12/14 11:31:11;;;;;;;2.67;0.70;;;;;;;0.83;72.54;99747.50;5120489;28;20032;-77
2022/12/14 11:34:00;;;;;;;2.95;0.75;;;;;;;0.92;72.13;99749.16;5119221;28;20031;-67
2022/12/14 11:36:39;;;;;;;4.80;0.88;;;;;;;1.09;72.08;99752.69;5096727;28;20032;-66
2022/12/14 11:39:19;;;;;;;2.45;0.68;;;;;;;0.83;72.76;99767.84;5111997;28;20027;-67
2022/12/14 11:41:51;;;;;;;2.08;0.90;;;;;;;0.81;73.05;99764.53;5106702;28;20047;-67
2022/12/14 11:44:28;;;;;;;1.23;0.73;;;;;;;0.91;72.25;99725.50;5120763;28;20056;-67
2022/12/14 11:46:57;;;;;;;1.27;0.60;;;;;;;1.04;71.69;99764.75;5116772;28;20036;-68
2022/12/14 11:49:28;;;;;;;4.63;0.82;;;;;;;0.83;72.28;99757.25;5111400;28;20028;-66
2022/12/14 11:52:04;;;;;;;3.53;0.90;;;;;;;0.81;73.50;99768.00;5124734;28;20027;-65
2022/12/14 11:54:31;;;;;;;2.58;0.90;;;;;;;0.84;73.06;99762.41;5115022;28;20043;-66
2022/12/14 11:57:20;;;;;;;1.80;0.88;;;;;;;0.95;72.21;99761.25;5117433;28;20032;-66
2022/12/14 11:59:52;;;;;;;1.50;0.75;;;;;;;0.98;71.46;99768.88;5124662;28;20031;-67
2022/12/14 12:02:26;;;;;;;3.25;0.80;;;;;;;1.10;70.35;99769.41;5105439;28;20051;-66
2022/12/14 12:05:07;;;;;;;1.73;0.70;;;;;;;0.72;71.91;99731.09;5116942;28;20039;-68
2022/12/14 12:07:35;;;;;;;4.53;1.00;;;;;;;0.93;72.29;99768.56;5114865;28;20031;-67
2022/12/14 12:10:13;;;;;;;2.75;0.90;;;;;;;1.03;71.83;99777.19;5127493;28;20085;-67
2022/12/14 12:12:48;;;;;;;1.48;0.60;;;;;;;1.20;72.25;99785.16;5112310;28;20027;-66